Ana Sayfa
METAR-TAF:

METAR-TAF

Havaalanları :

Oslo-Gardermoen Havalimanı

Oslo, Norveç

Enlem: 60-12N, Boylam: 011-05E, yükseklik: 208 m

Güncel hava durumu gözlemi

Rapor saat 02:20 UTC de 10 dakika önce yapıldı.
Rüzgar kuzey/kuzeybatıdan 3 kt
Sıcaklık -9°C
Nem 85%
Basınç 999 hPa
Görüş mesafesi 10 km veya daha fazla
4800 ft yükseklikte parçalı çok bulutlu

METAR: ENGM 280220Z 33003KT 9999 BKN048 M09/M11 Q0999

Saat: 03:30 (02:30 UTC)

Tahmin

Ayın 28'si saat 00 UTC'den ayın 28'si saat 24 UTC'ye kadar geçerli Tahmin
Rüzgar kuzeydan 5 kt
Görüş mesafesi 10 km veya daha fazla
3000 ft yükseklikte az bulutlu
7000 ft yükseklikte parçalı çok bulutlu
Dönüşüyor
ayın 28'si saat 08 UTC'den ayın 28'si saat 10 UTC'ye kadar
Rüzgar güneydan 10 kt
Dönüşüyor
ayın 28'si saat 18 UTC'den ayın 28'si saat 20 UTC'ye kadar
Rüzgar değişken yönden 3 kt

TAF: ENGM 2800/2824 01005KT 9999 FEW030 BKN070 BECMG 2808/2810 19010KT BECMG 2818/2820 VRB03KT

4.000'den fazla havaalanı için hava durumu gözlemleri ve tahminleri (METAR ve TAF raporları).

Kullanılabilir istasyonlar harita üzerinde sarı ve kırmızı noktalarla gösterilir.

İstasyonun adını görmek için fareyi noktanın üzerinde gezdirin.

Sonrasında hava gözlem ve tahminlerini görmek için tıklayın.

Haritayı değiştirmek için: yaklaştırmak için siyah artı işaretli yeşil düğmeye ve uzaklaştırmak için de eksi işaretli düğmeye hızla tıklayın; bitişik haritalar için yeşil okları kullanın.


METAR-TAF: